Amelia, Nebraska
Current Conditions -  °F | °C
As of 4:15 AM on Sunday 26 Oct 2014 (Local Time) from KONL Reporting Station
Clear Clear  
Wind Chill: 11°   Ceiling: Unl
Heat Index: 11°   Visibility: 10mi
Dew Point:   Wind: 14mph
Humidity: 56%   Direction: 130°SE
Pressure: 29.85"   Gusts: NA
Location:  42.24°N, 98.91°W
Report Text: KONL 260915Z AUTO 13012KT 10SM CLR 11/03 A2985 RMK AO2 T01140030
Loading
Personal Weather Stations






























Interactive Weather Map
Tropical Storm Tracking
New forecast layout! Learn more

10-Day Weather Forecast

Advertisements
Track Severe Weather on mobile